sensor_id;sensor_type;location;lat;lon;timestamp;temperature;humidity
66013;DHT22;52783;50.502;8.190;2023-06-19T00:00:28;21.60;99.90
66013;DHT22;52783;50.502;8.190;2023-06-19T00:02:56;21.40;99.90
66013;DHT22;52783;50.502;8.190;2023-06-19T00:05:21;21.30;99.90
66013;DHT22;52783;50.502;8.190;2023-06-19T00:07:48;21.10;99.90
66013;DHT22;52783;50.502;8.190;2023-06-19T00:10:14;21.10;99.90
66013;DHT22;52783;50.502;8.190;2023-06-19T00:12:40;21.10;99.90
66013;DHT22;52783;50.502;8.190;2023-06-19T00:15:06;21.20;99.90
66013;DHT22;52783;50.502;8.190;2023-06-19T00:17:32;21.20;99.90
66013;DHT22;52783;50.502;8.190;2023-06-19T00:19:58;21.10;99.90
66013;DHT22;52783;50.502;8.190;2023-06-19T00:22:24;21.10;99.90
66013;DHT22;52783;50.502;8.190;2023-06-19T00:24:50;21.20;99.90
66013;DHT22;52783;50.502;8.190;2023-06-19T00:27:17;21.20;99.90
66013;DHT22;52783;50.502;8.190;2023-06-19T00:29:43;21.20;99.90
66013;DHT22;52783;50.502;8.190;2023-06-19T00:32:09;21.20;99.90
66013;DHT22;52783;50.502;8.190;2023-06-19T00:34:34;21.10;99.90
66013;DHT22;52783;50.502;8.190;2023-06-19T00:37:02;21.00;99.90
66013;DHT22;52783;50.502;8.190;2023-06-19T00:39:28;21.10;99.90
66013;DHT22;52783;50.502;8.190;2023-06-19T00:41:55;21.10;99.90
66013;DHT22;52783;50.502;8.190;2023-06-19T00:44:21;21.00;99.90
66013;DHT22;52783;50.502;8.190;2023-06-19T00:46:47;20.90;99.90
66013;DHT22;52783;50.502;8.190;2023-06-19T00:49:15;20.90;99.90
66013;DHT22;52783;50.502;8.190;2023-06-19T00:51:40;20.90;99.90
66013;DHT22;52783;50.502;8.190;2023-06-19T00:54:06;20.90;99.90
66013;DHT22;52783;50.502;8.190;2023-06-19T00:56:32;20.80;99.90
66013;DHT22;52783;50.502;8.190;2023-06-19T00:59:00;20.80;99.90
66013;DHT22;52783;50.502;8.190;2023-06-19T01:01:27;20.30;99.90
66013;DHT22;52783;50.502;8.190;2023-06-19T01:03:53;20.00;99.90
66013;DHT22;52783;50.502;8.190;2023-06-19T01:06:29;19.80;99.90
66013;DHT22;52783;50.502;8.190;2023-06-19T01:09:07;20.00;99.90
66013;DHT22;52783;50.502;8.190;2023-06-19T01:11:39;20.00;99.90
66013;DHT22;52783;50.502;8.190;2023-06-19T01:14:09;19.80;99.90
66013;DHT22;52783;50.502;8.190;2023-06-19T01:16:38;19.80;99.90
66013;DHT22;52783;50.502;8.190;2023-06-19T01:19:05;19.90;99.90
66013;DHT22;52783;50.502;8.190;2023-06-19T01:21:33;20.00;99.90
66013;DHT22;52783;50.502;8.190;2023-06-19T01:23:59;20.10;99.90
66013;DHT22;52783;50.502;8.190;2023-06-19T01:26:25;20.30;99.90
66013;DHT22;52783;50.502;8.190;2023-06-19T01:28:53;20.20;99.90
66013;DHT22;52783;50.502;8.190;2023-06-19T01:31:38;20.00;99.90
66013;DHT22;52783;50.502;8.190;2023-06-19T01:34:08;20.00;99.90
66013;DHT22;52783;50.502;8.190;2023-06-19T01:36:35;19.80;99.90
66013;DHT22;52783;50.502;8.190;2023-06-19T01:39:01;19.60;99.90
66013;DHT22;52783;50.502;8.190;2023-06-19T01:41:28;19.60;99.90
66013;DHT22;52783;50.502;8.190;2023-06-19T01:43:56;19.60;99.90
66013;DHT22;52783;50.502;8.190;2023-06-19T01:46:22;19.70;99.90
66013;DHT22;52783;50.502;8.190;2023-06-19T01:48:47;19.70;99.90
66013;DHT22;52783;50.502;8.190;2023-06-19T01:51:13;19.60;99.90
66013;DHT22;52783;50.502;8.190;2023-06-19T01:53:39;19.50;99.90
66013;DHT22;52783;50.502;8.190;2023-06-19T01:56:04;19.60;99.90
66013;DHT22;52783;50.502;8.190;2023-06-19T01:58:30;19.70;99.90
66013;DHT22;52783;50.502;8.190;2023-06-19T02:00:55;19.70;99.90
66013;DHT22;52783;50.502;8.190;2023-06-19T02:03:21;19.70;99.90
66013;DHT22;52783;50.502;8.190;2023-06-19T02:05:47;19.80;99.90
66013;DHT22;52783;50.502;8.190;2023-06-19T02:08:12;19.90;99.90
66013;DHT22;52783;50.502;8.190;2023-06-19T02:10:38;19.90;99.90
66013;DHT22;52783;50.502;8.190;2023-06-19T02:13:03;20.00;99.90
66013;DHT22;52783;50.502;8.190;2023-06-19T02:15:29;20.00;99.90
66013;DHT22;52783;50.502;8.190;2023-06-19T02:17:57;20.00;99.90
66013;DHT22;52783;50.502;8.190;2023-06-19T02:20:23;20.10;99.90
66013;DHT22;52783;50.502;8.190;2023-06-19T02:22:52;20.10;99.90
66013;DHT22;52783;50.502;8.190;2023-06-19T02:25:18;20.10;99.90
66013;DHT22;52783;50.502;8.190;2023-06-19T02:27:44;20.20;99.90
66013;DHT22;52783;50.502;8.190;2023-06-19T02:30:10;20.20;99.90
66013;DHT22;52783;50.502;8.190;2023-06-19T02:32:36;20.00;99.90
66013;DHT22;52783;50.502;8.190;2023-06-19T02:35:01;20.10;99.90
66013;DHT22;52783;50.502;8.190;2023-06-19T02:37:27;20.10;99.90
66013;DHT22;52783;50.502;8.190;2023-06-19T02:39:55;20.10;99.90
66013;DHT22;52783;50.502;8.190;2023-06-19T02:42:20;20.10;99.90
66013;DHT22;52783;50.502;8.190;2023-06-19T02:44:46;20.10;99.90
66013;DHT22;52783;50.502;8.190;2023-06-19T02:47:11;20.10;99.90
66013;DHT22;52783;50.502;8.190;2023-06-19T02:49:37;20.20;99.90
66013;DHT22;52783;50.502;8.190;2023-06-19T02:52:02;20.20;99.90
66013;DHT22;52783;50.502;8.190;2023-06-19T02:54:28;20.20;99.90
66013;DHT22;52783;50.502;8.190;2023-06-19T02:56:53;20.10;99.90
66013;DHT22;52783;50.502;8.190;2023-06-19T02:59:19;20.10;99.90
66013;DHT22;52783;50.502;8.190;2023-06-19T03:01:44;20.00;99.90
66013;DHT22;52783;50.502;8.190;2023-06-19T03:04:10;20.20;99.90
66013;DHT22;52783;50.502;8.190;2023-06-19T03:06:35;20.30;99.90
66013;DHT22;52783;50.502;8.190;2023-06-19T03:09:05;20.30;99.90
66013;DHT22;52783;50.502;8.190;2023-06-19T03:11:31;20.30;99.90
66013;DHT22;52783;50.502;8.190;2023-06-19T03:13:56;20.40;99.90
66013;DHT22;52783;50.502;8.190;2023-06-19T03:16:22;20.30;99.90
66013;DHT22;52783;50.502;8.190;2023-06-19T03:18:47;20.40;99.90
66013;DHT22;52783;50.502;8.190;2023-06-19T03:21:16;20.50;99.90
66013;DHT22;52783;50.502;8.190;2023-06-19T03:23:42;20.50;99.90
66013;DHT22;52783;50.502;8.190;2023-06-19T03:26:11;20.50;99.90
66013;DHT22;52783;50.502;8.190;2023-06-19T03:28:37;20.50;99.90
66013;DHT22;52783;50.502;8.190;2023-06-19T03:31:03;20.40;99.90
66013;DHT22;52783;50.502;8.190;2023-06-19T03:33:28;20.40;99.90
66013;DHT22;52783;50.502;8.190;2023-06-19T03:35:54;20.50;99.90
66013;DHT22;52783;50.502;8.190;2023-06-19T03:38:20;20.50;99.90
66013;DHT22;52783;50.502;8.190;2023-06-19T03:40:45;20.50;99.90
66013;DHT22;52783;50.502;8.190;2023-06-19T03:43:12;20.40;99.90
66013;DHT22;52783;50.502;8.190;2023-06-19T03:45:37;20.40;99.90
66013;DHT22;52783;50.502;8.190;2023-06-19T03:48:03;20.40;99.90
66013;DHT22;52783;50.502;8.190;2023-06-19T03:50:29;20.50;99.90
66013;DHT22;52783;50.502;8.190;2023-06-19T03:52:54;20.50;99.90
66013;DHT22;52783;50.502;8.190;2023-06-19T03:55:20;20.40;99.90
66013;DHT22;52783;50.502;8.190;2023-06-19T03:57:45;20.40;99.90
66013;DHT22;52783;50.502;8.190;2023-06-19T04:00:11;20.40;99.90
66013;DHT22;52783;50.502;8.190;2023-06-19T04:02:38;20.40;99.90
66013;DHT22;52783;50.502;8.190;2023-06-19T04:05:05;20.40;99.90
66013;DHT22;52783;50.502;8.190;2023-06-19T04:07:31;20.40;99.90
66013;DHT22;52783;50.502;8.190;2023-06-19T04:09:57;20.30;99.90
66013;DHT22;52783;50.502;8.190;2023-06-19T04:12:23;20.30;99.90
66013;DHT22;52783;50.502;8.190;2023-06-19T04:14:48;20.40;99.90
66013;DHT22;52783;50.502;8.190;2023-06-19T04:17:14;20.20;99.90
66013;DHT22;52783;50.502;8.190;2023-06-19T04:19:41;20.30;99.90
66013;DHT22;52783;50.502;8.190;2023-06-19T04:22:06;20.40;99.90
66013;DHT22;52783;50.502;8.190;2023-06-19T04:24:32;20.30;99.90
66013;DHT22;52783;50.502;8.190;2023-06-19T04:26:57;20.40;99.90
66013;DHT22;52783;50.502;8.190;2023-06-19T04:29:23;20.30;99.90
66013;DHT22;52783;50.502;8.190;2023-06-19T04:31:49;20.40;99.90
66013;DHT22;52783;50.502;8.190;2023-06-19T04:34:16;20.30;99.90
66013;DHT22;52783;50.502;8.190;2023-06-19T04:36:42;20.50;99.90
66013;DHT22;52783;50.502;8.190;2023-06-19T04:39:08;20.50;99.90
66013;DHT22;52783;50.502;8.190;2023-06-19T04:41:34;20.70;99.90
66013;DHT22;52783;50.502;8.190;2023-06-19T04:44:04;21.00;99.90
66013;DHT22;52783;50.502;8.190;2023-06-19T04:46:29;21.20;99.90
66013;DHT22;52783;50.502;8.190;2023-06-19T04:48:55;21.40;99.90
66013;DHT22;52783;50.502;8.190;2023-06-19T04:51:21;21.40;99.90
66013;DHT22;52783;50.502;8.190;2023-06-19T04:53:49;21.30;99.90
66013;DHT22;52783;50.502;8.190;2023-06-19T04:56:15;21.30;99.90
66013;DHT22;52783;50.502;8.190;2023-06-19T04:58:41;21.30;99.90
66013;DHT22;52783;50.502;8.190;2023-06-19T05:01:12;21.30;99.90
66013;DHT22;52783;50.502;8.190;2023-06-19T05:03:39;21.40;99.90
66013;DHT22;52783;50.502;8.190;2023-06-19T05:06:04;21.60;99.90
66013;DHT22;52783;50.502;8.190;2023-06-19T05:08:30;21.90;99.90
66013;DHT22;52783;50.502;8.190;2023-06-19T05:10:55;22.10;99.90
66013;DHT22;52783;50.502;8.190;2023-06-19T05:13:23;22.10;99.90
66013;DHT22;52783;50.502;8.190;2023-06-19T05:15:48;22.40;99.90
66013;DHT22;52783;50.502;8.190;2023-06-19T05:18:15;22.60;99.90
66013;DHT22;52783;50.502;8.190;2023-06-19T05:20:40;22.70;99.90
66013;DHT22;52783;50.502;8.190;2023-06-19T05:23:06;22.90;99.90
66013;DHT22;52783;50.502;8.190;2023-06-19T05:25:31;22.90;99.90
66013;DHT22;52783;50.502;8.190;2023-06-19T05:27:57;22.90;99.90
66013;DHT22;52783;50.502;8.190;2023-06-19T05:30:22;23.20;99.90
66013;DHT22;52783;50.502;8.190;2023-06-19T05:32:48;23.20;99.90
66013;DHT22;52783;50.502;8.190;2023-06-19T05:35:13;23.60;99.90
66013;DHT22;52783;50.502;8.190;2023-06-19T05:37:39;23.90;99.90
66013;DHT22;52783;50.502;8.190;2023-06-19T05:40:06;24.40;99.90
66013;DHT22;52783;50.502;8.190;2023-06-19T05:42:31;24.50;99.90
66013;DHT22;52783;50.502;8.190;2023-06-19T05:44:57;24.70;99.90
66013;DHT22;52783;50.502;8.190;2023-06-19T05:47:22;25.00;99.90
66013;DHT22;52783;50.502;8.190;2023-06-19T05:49:51;24.80;99.90
66013;DHT22;52783;50.502;8.190;2023-06-19T05:52:16;24.90;99.90
66013;DHT22;52783;50.502;8.190;2023-06-19T05:54:42;25.00;99.90
66013;DHT22;52783;50.502;8.190;2023-06-19T05:57:08;25.40;99.90
66013;DHT22;52783;50.502;8.190;2023-06-19T05:59:33;25.80;99.90
66013;DHT22;52783;50.502;8.190;2023-06-19T06:01:59;26.10;99.90
66013;DHT22;52783;50.502;8.190;2023-06-19T06:04:25;26.00;99.90
66013;DHT22;52783;50.502;8.190;2023-06-19T06:06:51;26.00;99.90
66013;DHT22;52783;50.502;8.190;2023-06-19T06:09:16;26.30;99.90
66013;DHT22;52783;50.502;8.190;2023-06-19T06:11:42;25.90;99.90
66013;DHT22;52783;50.502;8.190;2023-06-19T06:14:07;26.20;99.90
66013;DHT22;52783;50.502;8.190;2023-06-19T06:16:33;27.10;99.90
66013;DHT22;52783;50.502;8.190;2023-06-19T06:18:58;26.60;99.90
66013;DHT22;52783;50.502;8.190;2023-06-19T06:21:24;26.70;99.90
66013;DHT22;52783;50.502;8.190;2023-06-19T06:23:50;26.40;99.90
66013;DHT22;52783;50.502;8.190;2023-06-19T06:26:16;26.00;99.90
66013;DHT22;52783;50.502;8.190;2023-06-19T06:28:41;25.80;99.90
66013;DHT22;52783;50.502;8.190;2023-06-19T06:31:07;25.30;99.90
66013;DHT22;52783;50.502;8.190;2023-06-19T06:33:32;25.30;99.90
66013;DHT22;52783;50.502;8.190;2023-06-19T06:35:58;24.60;99.90
66013;DHT22;52783;50.502;8.190;2023-06-19T06:38:24;24.70;99.90
66013;DHT22;52783;50.502;8.190;2023-06-19T06:40:50;24.80;99.90
66013;DHT22;52783;50.502;8.190;2023-06-19T06:43:16;25.00;99.90
66013;DHT22;52783;50.502;8.190;2023-06-19T06:45:41;24.70;99.90
66013;DHT22;52783;50.502;8.190;2023-06-19T06:48:07;24.60;99.90
66013;DHT22;52783;50.502;8.190;2023-06-19T06:50:33;24.20;99.90
66013;DHT22;52783;50.502;8.190;2023-06-19T06:53:01;23.50;99.90
66013;DHT22;52783;50.502;8.190;2023-06-19T06:55:27;23.00;99.90
66013;DHT22;52783;50.502;8.190;2023-06-19T06:57:52;22.70;99.90
66013;DHT22;52783;50.502;8.190;2023-06-19T07:00:18;23.20;99.90
66013;DHT22;52783;50.502;8.190;2023-06-19T07:02:44;22.90;99.90
66013;DHT22;52783;50.502;8.190;2023-06-19T07:05:10;22.80;99.90
66013;DHT22;52783;50.502;8.190;2023-06-19T07:07:36;22.90;99.90
66013;DHT22;52783;50.502;8.190;2023-06-19T07:10:02;22.90;99.90
66013;DHT22;52783;50.502;8.190;2023-06-19T07:12:28;22.70;99.90
66013;DHT22;52783;50.502;8.190;2023-06-19T07:14:53;22.60;99.90
66013;DHT22;52783;50.502;8.190;2023-06-19T07:17:20;22.50;99.90
66013;DHT22;52783;50.502;8.190;2023-06-19T07:19:45;22.20;99.90
66013;DHT22;52783;50.502;8.190;2023-06-19T07:22:11;22.30;99.90
66013;DHT22;52783;50.502;8.190;2023-06-19T07:24:37;22.30;99.90
66013;DHT22;52783;50.502;8.190;2023-06-19T07:27:02;22.60;99.90
66013;DHT22;52783;50.502;8.190;2023-06-19T07:29:28;22.70;99.90
66013;DHT22;52783;50.502;8.190;2023-06-19T07:31:53;22.70;99.90
66013;DHT22;52783;50.502;8.190;2023-06-19T07:34:19;22.70;99.90
66013;DHT22;52783;50.502;8.190;2023-06-19T07:36:44;22.80;99.90
66013;DHT22;52783;50.502;8.190;2023-06-19T07:39:10;23.00;99.90
66013;DHT22;52783;50.502;8.190;2023-06-19T07:41:36;23.00;99.90
66013;DHT22;52783;50.502;8.190;2023-06-19T07:44:02;23.10;99.90
66013;DHT22;52783;50.502;8.190;2023-06-19T07:46:27;22.70;99.90
66013;DHT22;52783;50.502;8.190;2023-06-19T07:48:53;22.90;99.90
66013;DHT22;52783;50.502;8.190;2023-06-19T07:51:18;23.20;99.90
66013;DHT22;52783;50.502;8.190;2023-06-19T07:53:44;23.20;99.90
66013;DHT22;52783;50.502;8.190;2023-06-19T07:56:09;23.30;99.90
66013;DHT22;52783;50.502;8.190;2023-06-19T07:58:35;23.00;99.90
66013;DHT22;52783;50.502;8.190;2023-06-19T08:01:04;23.00;99.90
66013;DHT22;52783;50.502;8.190;2023-06-19T08:03:29;23.30;99.90
66013;DHT22;52783;50.502;8.190;2023-06-19T08:05:56;23.30;99.90
66013;DHT22;52783;50.502;8.190;2023-06-19T08:08:21;23.10;99.90
66013;DHT22;52783;50.502;8.190;2023-06-19T08:10:47;23.40;99.90
66013;DHT22;52783;50.502;8.190;2023-06-19T08:13:12;23.40;99.90
66013;DHT22;52783;50.502;8.190;2023-06-19T08:15:38;23.70;99.90
66013;DHT22;52783;50.502;8.190;2023-06-19T08:18:04;23.90;99.90
66013;DHT22;52783;50.502;8.190;2023-06-19T08:20:29;24.00;99.90
66013;DHT22;52783;50.502;8.190;2023-06-19T08:22:55;23.90;99.90
66013;DHT22;52783;50.502;8.190;2023-06-19T08:25:21;24.00;99.90
66013;DHT22;52783;50.502;8.190;2023-06-19T08:27:47;24.30;99.90
66013;DHT22;52783;50.502;8.190;2023-06-19T08:30:12;24.40;99.90
66013;DHT22;52783;50.502;8.190;2023-06-19T08:32:38;24.60;99.90
66013;DHT22;52783;50.502;8.190;2023-06-19T08:35:03;24.90;99.90
66013;DHT22;52783;50.502;8.190;2023-06-19T08:37:32;25.40;99.90
66013;DHT22;52783;50.502;8.190;2023-06-19T08:39:57;25.40;99.90
66013;DHT22;52783;50.502;8.190;2023-06-19T08:42:24;25.70;99.90
66013;DHT22;52783;50.502;8.190;2023-06-19T08:44:49;25.70;99.90
66013;DHT22;52783;50.502;8.190;2023-06-19T08:47:15;25.00;99.90
66013;DHT22;52783;50.502;8.190;2023-06-19T08:49:40;26.10;99.90
66013;DHT22;52783;50.502;8.190;2023-06-19T08:52:06;25.90;99.90
66013;DHT22;52783;50.502;8.190;2023-06-19T08:54:32;26.20;99.90
66013;DHT22;52783;50.502;8.190;2023-06-19T08:57:02;26.60;99.90
66013;DHT22;52783;50.502;8.190;2023-06-19T08:59:30;26.20;99.90
66013;DHT22;52783;50.502;8.190;2023-06-19T09:01:57;27.00;99.90
66013;DHT22;52783;50.502;8.190;2023-06-19T09:04:25;27.20;99.90
66013;DHT22;52783;50.502;8.190;2023-06-19T09:06:57;27.60;99.90
66013;DHT22;52783;50.502;8.190;2023-06-19T09:09:24;27.90;99.90
66013;DHT22;52783;50.502;8.190;2023-06-19T09:12:11;27.20;99.90
66013;DHT22;52783;50.502;8.190;2023-06-19T09:14:39;27.70;99.90
66013;DHT22;52783;50.502;8.190;2023-06-19T09:17:11;28.30;99.90
66013;DHT22;52783;50.502;8.190;2023-06-19T09:19:36;27.80;99.90
66013;DHT22;52783;50.502;8.190;2023-06-19T09:22:03;27.70;99.90
66013;DHT22;52783;50.502;8.190;2023-06-19T09:24:40;28.00;99.90
66013;DHT22;52783;50.502;8.190;2023-06-19T09:27:16;28.10;99.90
66013;DHT22;52783;50.502;8.190;2023-06-19T09:29:48;28.90;99.90
66013;DHT22;52783;50.502;8.190;2023-06-19T09:32:21;29.60;99.90
66013;DHT22;52783;50.502;8.190;2023-06-19T09:34:48;29.40;99.90
66013;DHT22;52783;50.502;8.190;2023-06-19T09:37:15;29.50;99.90
66013;DHT22;52783;50.502;8.190;2023-06-19T09:39:41;29.90;99.90
66013;DHT22;52783;50.502;8.190;2023-06-19T09:42:10;30.30;99.90
66013;DHT22;52783;50.502;8.190;2023-06-19T09:44:40;30.40;99.90
66013;DHT22;52783;50.502;8.190;2023-06-19T09:47:21;29.30;99.90
66013;DHT22;52783;50.502;8.190;2023-06-19T09:49:53;30.00;99.90
66013;DHT22;52783;50.502;8.190;2023-06-19T09:52:20;29.40;99.90
66013;DHT22;52783;50.502;8.190;2023-06-19T09:54:51;29.00;99.90
66013;DHT22;52783;50.502;8.190;2023-06-19T09:57:17;28.60;99.90
66013;DHT22;52783;50.502;8.190;2023-06-19T09:59:46;28.60;99.90
66013;DHT22;52783;50.502;8.190;2023-06-19T10:02:12;28.90;99.90
66013;DHT22;52783;50.502;8.190;2023-06-19T10:04:44;28.60;99.90
66013;DHT22;52783;50.502;8.190;2023-06-19T10:07:18;28.60;99.90
66013;DHT22;52783;50.502;8.190;2023-06-19T10:10:05;28.70;99.90
66013;DHT22;52783;50.502;8.190;2023-06-19T10:12:45;28.30;99.90
66013;DHT22;52783;50.502;8.190;2023-06-19T10:17:50;29.60;99.90
66013;DHT22;52783;50.502;8.190;2023-06-19T10:22:57;31.40;99.90
66013;DHT22;52783;50.502;8.190;2023-06-19T10:25:24;31.40;99.90
66013;DHT22;52783;50.502;8.190;2023-06-19T10:27:52;31.60;99.90
66013;DHT22;52783;50.502;8.190;2023-06-19T10:30:19;31.00;99.90
66013;DHT22;52783;50.502;8.190;2023-06-19T10:32:45;30.60;99.90
66013;DHT22;52783;50.502;8.190;2023-06-19T10:35:12;30.10;99.90
66013;DHT22;52783;50.502;8.190;2023-06-19T10:37:38;30.10;99.90
66013;DHT22;52783;50.502;8.190;2023-06-19T10:40:04;29.40;99.90
66013;DHT22;52783;50.502;8.190;2023-06-19T10:42:39;29.80;99.90
66013;DHT22;52783;50.502;8.190;2023-06-19T10:45:07;29.50;99.90
66013;DHT22;52783;50.502;8.190;2023-06-19T10:47:34;29.30;99.90
66013;DHT22;52783;50.502;8.190;2023-06-19T10:50:00;28.80;99.90
66013;DHT22;52783;50.502;8.190;2023-06-19T10:52:28;28.90;99.90
66013;DHT22;52783;50.502;8.190;2023-06-19T10:54:54;29.20;99.90
66013;DHT22;52783;50.502;8.190;2023-06-19T10:57:27;28.90;99.90
66013;DHT22;52783;50.502;8.190;2023-06-19T10:59:52;29.20;99.90
66013;DHT22;52783;50.502;8.190;2023-06-19T11:02:18;29.10;99.90
66013;DHT22;52783;50.502;8.190;2023-06-19T11:04:44;29.30;99.90
66013;DHT22;52783;50.502;8.190;2023-06-19T11:07:10;28.90;99.90
66013;DHT22;52783;50.502;8.190;2023-06-19T11:09:35;29.00;99.90
66013;DHT22;52783;50.502;8.190;2023-06-19T11:12:01;29.00;99.90
66013;DHT22;52783;50.502;8.190;2023-06-19T11:14:29;29.00;99.90
66013;DHT22;52783;50.502;8.190;2023-06-19T11:16:55;29.20;99.90
66013;DHT22;52783;50.502;8.190;2023-06-19T11:19:21;28.50;99.90
66013;DHT22;52783;50.502;8.190;2023-06-19T11:21:52;28.30;99.90
66013;DHT22;52783;50.502;8.190;2023-06-19T11:24:18;28.70;99.90
66013;DHT22;52783;50.502;8.190;2023-06-19T11:26:46;28.80;99.90
66013;DHT22;52783;50.502;8.190;2023-06-19T11:29:17;29.00;99.90
66013;DHT22;52783;50.502;8.190;2023-06-19T11:31:44;28.50;99.90
66013;DHT22;52783;50.502;8.190;2023-06-19T11:34:09;28.40;99.90
66013;DHT22;52783;50.502;8.190;2023-06-19T11:36:39;28.60;99.90
66013;DHT22;52783;50.502;8.190;2023-06-19T11:39:10;28.60;99.90
66013;DHT22;52783;50.502;8.190;2023-06-19T11:41:36;28.30;99.90
66013;DHT22;52783;50.502;8.190;2023-06-19T11:44:04;28.30;99.90
66013;DHT22;52783;50.502;8.190;2023-06-19T11:46:31;28.40;99.90
66013;DHT22;52783;50.502;8.190;2023-06-19T11:49:13;28.40;99.90
66013;DHT22;52783;50.502;8.190;2023-06-19T11:51:40;28.40;99.90
66013;DHT22;52783;50.502;8.190;2023-06-19T11:54:07;28.50;99.90
66013;DHT22;52783;50.502;8.190;2023-06-19T11:56:34;28.60;99.90
66013;DHT22;52783;50.502;8.190;2023-06-19T11:59:00;28.70;99.90
66013;DHT22;52783;50.502;8.190;2023-06-19T12:01:26;28.60;99.90
66013;DHT22;52783;50.502;8.190;2023-06-19T12:03:51;28.60;99.90
66013;DHT22;52783;50.502;8.190;2023-06-19T12:06:17;28.60;99.90
66013;DHT22;52783;50.502;8.190;2023-06-19T12:08:46;28.90;99.90
66013;DHT22;52783;50.502;8.190;2023-06-19T12:11:11;29.10;99.90
66013;DHT22;52783;50.502;8.190;2023-06-19T12:13:41;29.40;99.90
66013;DHT22;52783;50.502;8.190;2023-06-19T12:16:07;29.40;99.90
66013;DHT22;52783;50.502;8.190;2023-06-19T12:18:33;29.20;99.90
66013;DHT22;52783;50.502;8.190;2023-06-19T12:20:59;29.30;99.90
66013;DHT22;52783;50.502;8.190;2023-06-19T12:23:24;29.30;99.90
66013;DHT22;52783;50.502;8.190;2023-06-19T12:25:50;29.00;99.90
66013;DHT22;52783;50.502;8.190;2023-06-19T12:28:15;28.60;99.90
66013;DHT22;52783;50.502;8.190;2023-06-19T12:30:44;28.30;99.90
66013;DHT22;52783;50.502;8.190;2023-06-19T12:33:10;27.80;99.90
66013;DHT22;52783;50.502;8.190;2023-06-19T12:35:39;28.70;99.90
66013;DHT22;52783;50.502;8.190;2023-06-19T12:38:05;29.10;99.90
66013;DHT22;52783;50.502;8.190;2023-06-19T12:40:32;29.20;99.90
66013;DHT22;52783;50.502;8.190;2023-06-19T12:42:57;29.00;99.90
66013;DHT22;52783;50.502;8.190;2023-06-19T12:45:23;28.80;99.90
66013;DHT22;52783;50.502;8.190;2023-06-19T12:47:48;28.40;99.90
66013;DHT22;52783;50.502;8.190;2023-06-19T12:50:14;28.70;99.90
66013;DHT22;52783;50.502;8.190;2023-06-19T12:52:39;28.20;99.90
66013;DHT22;52783;50.502;8.190;2023-06-19T12:55:05;28.70;99.90
66013;DHT22;52783;50.502;8.190;2023-06-19T12:57:31;28.90;99.90
66013;DHT22;52783;50.502;8.190;2023-06-19T12:59:56;29.00;99.90
66013;DHT22;52783;50.502;8.190;2023-06-19T13:02:22;29.40;99.90
66013;DHT22;52783;50.502;8.190;2023-06-19T13:04:47;29.50;99.90
66013;DHT22;52783;50.502;8.190;2023-06-19T13:07:13;29.70;99.90
66013;DHT22;52783;50.502;8.190;2023-06-19T13:09:38;29.60;99.90
66013;DHT22;52783;50.502;8.190;2023-06-19T13:12:04;29.50;99.90
66013;DHT22;52783;50.502;8.190;2023-06-19T13:14:30;29.50;99.90
66013;DHT22;52783;50.502;8.190;2023-06-19T13:16:57;29.20;99.90
66013;DHT22;52783;50.502;8.190;2023-06-19T13:19:23;29.50;99.90
66013;DHT22;52783;50.502;8.190;2023-06-19T13:21:48;28.70;99.90
66013;DHT22;52783;50.502;8.190;2023-06-19T13:24:14;29.30;99.90
66013;DHT22;52783;50.502;8.190;2023-06-19T13:26:39;29.50;99.90
66013;DHT22;52783;50.502;8.190;2023-06-19T13:29:05;29.40;99.90
66013;DHT22;52783;50.502;8.190;2023-06-19T13:31:31;29.70;99.90
66013;DHT22;52783;50.502;8.190;2023-06-19T13:33:56;29.40;99.90
66013;DHT22;52783;50.502;8.190;2023-06-19T13:36:22;29.70;99.90
66013;DHT22;52783;50.502;8.190;2023-06-19T13:38:49;29.90;99.90
66013;DHT22;52783;50.502;8.190;2023-06-19T13:41:15;29.90;99.90
66013;DHT22;52783;50.502;8.190;2023-06-19T13:43:40;30.10;99.90
66013;DHT22;52783;50.502;8.190;2023-06-19T13:46:08;30.10;99.90
66013;DHT22;52783;50.502;8.190;2023-06-19T13:48:33;29.60;99.90
66013;DHT22;52783;50.502;8.190;2023-06-19T13:51:00;29.60;99.90
66013;DHT22;52783;50.502;8.190;2023-06-19T13:53:26;29.20;99.90
66013;DHT22;52783;50.502;8.190;2023-06-19T13:55:54;29.40;99.90
66013;DHT22;52783;50.502;8.190;2023-06-19T13:58:19;29.10;99.90
66013;DHT22;52783;50.502;8.190;2023-06-19T14:00:45;29.50;99.90
66013;DHT22;52783;50.502;8.190;2023-06-19T14:03:10;28.50;99.90
66013;DHT22;52783;50.502;8.190;2023-06-19T14:05:36;28.70;99.90
66013;DHT22;52783;50.502;8.190;2023-06-19T14:08:02;28.80;99.90
66013;DHT22;52783;50.502;8.190;2023-06-19T14:10:29;28.30;99.90
66013;DHT22;52783;50.502;8.190;2023-06-19T14:12:54;28.60;99.90
66013;DHT22;52783;50.502;8.190;2023-06-19T14:15:20;28.40;99.90
66013;DHT22;52783;50.502;8.190;2023-06-19T14:17:45;28.20;99.90
66013;DHT22;52783;50.502;8.190;2023-06-19T14:20:11;28.00;99.90
66013;DHT22;52783;50.502;8.190;2023-06-19T14:22:37;27.80;99.90
66013;DHT22;52783;50.502;8.190;2023-06-19T14:25:02;28.00;99.90
66013;DHT22;52783;50.502;8.190;2023-06-19T14:27:28;27.80;99.90
66013;DHT22;52783;50.502;8.190;2023-06-19T14:29:54;28.10;99.90
66013;DHT22;52783;50.502;8.190;2023-06-19T14:32:21;27.50;99.90
66013;DHT22;52783;50.502;8.190;2023-06-19T14:34:46;27.40;99.90
66013;DHT22;52783;50.502;8.190;2023-06-19T14:37:12;27.90;99.90
66013;DHT22;52783;50.502;8.190;2023-06-19T14:39:38;28.20;99.90
66013;DHT22;52783;50.502;8.190;2023-06-19T14:42:04;27.90;99.90
66013;DHT22;52783;50.502;8.190;2023-06-19T14:44:30;28.40;99.90
66013;DHT22;52783;50.502;8.190;2023-06-19T14:46:56;28.40;99.90
66013;DHT22;52783;50.502;8.190;2023-06-19T14:49:22;28.60;99.90
66013;DHT22;52783;50.502;8.190;2023-06-19T14:51:48;28.40;99.90
66013;DHT22;52783;50.502;8.190;2023-06-19T14:54:14;28.40;99.90
66013;DHT22;52783;50.502;8.190;2023-06-19T14:56:41;28.70;99.90
66013;DHT22;52783;50.502;8.190;2023-06-19T14:59:06;28.80;99.90
66013;DHT22;52783;50.502;8.190;2023-06-19T15:01:32;28.50;99.90
66013;DHT22;52783;50.502;8.190;2023-06-19T15:03:57;28.80;99.90
66013;DHT22;52783;50.502;8.190;2023-06-19T15:06:23;28.80;99.90
66013;DHT22;52783;50.502;8.190;2023-06-19T15:08:48;29.00;99.90
66013;DHT22;52783;50.502;8.190;2023-06-19T15:11:14;29.20;99.90
66013;DHT22;52783;50.502;8.190;2023-06-19T15:13:39;28.90;99.90
66013;DHT22;52783;50.502;8.190;2023-06-19T15:16:05;29.20;99.90
66013;DHT22;52783;50.502;8.190;2023-06-19T15:18:33;29.50;99.90
66013;DHT22;52783;50.502;8.190;2023-06-19T15:20:58;29.60;99.90
66013;DHT22;52783;50.502;8.190;2023-06-19T15:23:24;29.60;99.90
66013;DHT22;52783;50.502;8.190;2023-06-19T15:25:50;29.40;99.90
66013;DHT22;52783;50.502;8.190;2023-06-19T15:28:17;29.30;99.90
66013;DHT22;52783;50.502;8.190;2023-06-19T15:30:43;29.50;99.90